createdAt,value
2019-03-12T00:00:32.305Z,99.90
2019-03-12T00:03:00.776Z,99.90
2019-03-12T00:05:29.155Z,99.90
2019-03-12T00:07:57.539Z,99.90
2019-03-12T00:10:25.929Z,99.90
2019-03-12T00:12:54.309Z,99.90
2019-03-12T00:15:22.704Z,99.90
2019-03-12T00:17:51.105Z,99.90
2019-03-12T00:20:19.484Z,99.90
2019-03-12T00:22:47.876Z,99.90
2019-03-12T00:25:16.358Z,99.90
2019-03-12T00:27:44.761Z,99.90
2019-03-12T00:30:13.148Z,99.90
2019-03-12T00:32:41.540Z,99.90
2019-03-12T00:35:11.172Z,99.90
2019-03-12T00:37:39.564Z,99.90
2019-03-12T00:40:10.122Z,99.90
2019-03-12T00:42:38.500Z,99.90
2019-03-12T00:45:11.940Z,99.90
2019-03-12T00:47:40.410Z,99.90
2019-03-12T00:50:11.558Z,99.90
2019-03-12T00:52:40.197Z,99.90
2019-03-12T00:55:10.013Z,99.90
2019-03-12T00:57:38.412Z,99.90
2019-03-12T01:00:09.873Z,99.90
2019-03-12T01:02:38.258Z,99.90
2019-03-12T01:05:07.480Z,99.90
2019-03-12T01:07:35.860Z,99.90
2019-03-12T01:10:05.788Z,99.90
2019-03-12T01:12:34.168Z,99.90
2019-03-12T01:15:02.550Z,99.90
2019-03-12T01:17:30.940Z,99.90
2019-03-12T01:19:59.320Z,99.90
2019-03-12T01:22:27.724Z,99.90
2019-03-12T01:24:56.216Z,99.90
2019-03-12T01:27:24.617Z,99.90
2019-03-12T01:29:53.006Z,99.90
2019-03-12T01:32:21.396Z,99.90
2019-03-12T01:34:49.786Z,99.90
2019-03-12T01:37:18.160Z,99.90
2019-03-12T01:39:46.556Z,99.90
2019-03-12T01:42:14.944Z,99.90
2019-03-12T01:44:43.329Z,99.90
2019-03-12T01:47:11.728Z,99.90
2019-03-12T01:49:40.130Z,99.90
2019-03-12T01:52:08.508Z,99.90
2019-03-12T01:54:36.904Z,99.90
2019-03-12T01:57:05.301Z,99.90
2019-03-12T01:59:33.947Z,99.90
2019-03-12T02:02:02.320Z,99.90
2019-03-12T02:04:30.780Z,99.90
2019-03-12T02:06:59.181Z,99.90
2019-03-12T02:09:29.702Z,99.90
2019-03-12T02:11:58.161Z,99.90
2019-03-12T02:14:29.189Z,99.90
2019-03-12T02:16:57.573Z,99.90
2019-03-12T02:19:25.962Z,99.90
2019-03-12T02:21:54.358Z,99.90
2019-03-12T02:24:22.748Z,99.90
2019-03-12T02:26:51.134Z,99.90
2019-03-12T02:29:19.769Z,99.90
2019-03-12T02:31:48.410Z,99.90
2019-03-12T02:34:16.795Z,99.90
2019-03-12T02:36:45.180Z,99.90
2019-03-12T02:39:14.405Z,99.90
2019-03-12T02:41:42.790Z,99.90
2019-03-12T02:44:11.191Z,99.90
2019-03-12T02:46:39.573Z,99.90
2019-03-12T02:49:09.809Z,99.90
2019-03-12T02:51:38.078Z,99.90
2019-03-12T02:54:06.465Z,99.90
2019-03-12T02:56:34.866Z,99.90
2019-03-12T02:59:03.247Z,99.90
2019-03-12T03:01:31.725Z,99.90
2019-03-12T03:04:00.141Z,99.90
2019-03-12T03:06:32.886Z,99.90
2019-03-12T03:09:01.272Z,99.90
2019-03-12T03:11:29.729Z,99.90
2019-03-12T03:13:58.118Z,99.90
2019-03-12T03:16:26.503Z,99.90
2019-03-12T03:18:54.885Z,99.90
2019-03-12T03:21:23.274Z,99.90
2019-03-12T03:23:51.660Z,99.90
2019-03-12T03:26:39.475Z,99.90
2019-03-12T03:29:07.874Z,99.90
2019-03-12T03:31:36.271Z,99.90
2019-03-12T03:34:04.903Z,99.90
2019-03-12T03:36:33.280Z,99.90
2019-03-12T03:39:01.680Z,99.90
2019-03-12T03:41:34.391Z,99.90
2019-03-12T03:44:00.180Z,99.90
2019-03-12T03:46:28.561Z,99.90
2019-03-12T03:48:56.945Z,99.90
2019-03-12T03:51:25.340Z,99.90
2019-03-12T03:53:53.726Z,99.90
2019-03-12T03:56:22.113Z,99.90
2019-03-12T03:58:50.505Z,99.90
2019-03-12T04:01:18.890Z,99.90
2019-03-12T04:03:47.274Z,99.90
2019-03-12T04:06:15.692Z,99.90
2019-03-12T04:08:44.371Z,99.90
2019-03-12T04:11:12.754Z,99.90
2019-03-12T04:13:41.145Z,99.90
2019-03-12T04:16:09.535Z,99.90
2019-03-12T04:18:37.936Z,99.90
2019-03-12T04:21:06.318Z,99.90
2019-03-12T04:23:34.708Z,99.90
2019-03-12T04:26:03.100Z,99.90
2019-03-12T04:28:31.517Z,99.90
2019-03-12T04:30:59.892Z,99.90
2019-03-12T04:34:00.453Z,99.90
2019-03-12T04:36:28.842Z,99.90
2019-03-12T04:39:16.578Z,99.90
2019-03-12T04:41:45.002Z,99.90
2019-03-12T04:44:13.385Z,99.90
2019-03-12T04:46:41.859Z,99.90
2019-03-12T04:49:10.247Z,99.90
2019-03-12T04:51:38.648Z,99.90
2019-03-12T04:54:07.056Z,99.90
2019-03-12T04:56:35.433Z,99.90
2019-03-12T04:59:04.595Z,99.90
2019-03-12T05:01:32.973Z,99.90
2019-03-12T05:04:01.357Z,99.90
2019-03-12T05:06:29.744Z,99.90
2019-03-12T05:08:58.229Z,99.90
2019-03-12T05:11:26.617Z,99.90
2019-03-12T05:14:21.137Z,99.90
2019-03-12T05:16:49.664Z,99.90
2019-03-12T05:19:18.125Z,99.90
2019-03-12T05:21:46.513Z,99.90
2019-03-12T05:24:14.901Z,99.90
2019-03-12T05:26:43.289Z,99.90
2019-03-12T05:29:11.683Z,99.90
2019-03-12T05:31:40.052Z,99.90
2019-03-12T05:34:08.440Z,99.90
2019-03-12T05:36:36.851Z,99.90
2019-03-12T05:39:07.089Z,99.90
2019-03-12T05:41:35.485Z,99.90
2019-03-12T05:44:04.641Z,99.90
2019-03-12T05:46:33.048Z,99.90
2019-03-12T05:49:01.432Z,99.90
2019-03-12T05:51:30.053Z,99.90
2019-03-12T05:53:58.464Z,99.90
2019-03-12T05:56:26.864Z,99.90
2019-03-12T05:58:55.244Z,99.90
2019-03-12T06:01:23.653Z,99.90
2019-03-12T06:03:52.056Z,99.90
2019-03-12T06:06:20.449Z,99.90
2019-03-12T06:08:48.902Z,99.90
2019-03-12T06:11:17.302Z,99.90
2019-03-12T06:13:45.688Z,99.90
2019-03-12T06:16:14.081Z,99.90
2019-03-12T06:18:42.503Z,99.90
2019-03-12T06:21:10.917Z,99.90
2019-03-12T06:23:39.315Z,99.90
2019-03-12T06:26:07.701Z,99.90
2019-03-12T06:28:36.113Z,99.90
2019-03-12T06:31:06.145Z,99.90
2019-03-12T06:33:51.152Z,99.90
2019-03-12T06:36:33.258Z,99.90
2019-03-12T06:39:18.486Z,99.90
2019-03-12T06:42:07.699Z,99.90
2019-03-12T06:44:45.821Z,99.90
2019-03-12T06:47:18.689Z,99.90
2019-03-12T06:49:51.777Z,99.90
2019-03-12T06:52:21.813Z,99.90
2019-03-12T06:54:51.842Z,99.90
2019-03-12T06:57:28.117Z,99.90
2019-03-12T07:00:04.117Z,99.90
2019-03-12T07:02:34.151Z,99.90
2019-03-12T07:05:04.194Z,99.90
2019-03-12T07:07:49.312Z,99.90
2019-03-12T07:10:19.353Z,99.90
2019-03-12T07:12:51.917Z,99.90
2019-03-12T07:15:22.020Z,99.90
2019-03-12T07:17:55.016Z,99.90
2019-03-12T07:20:43.221Z,99.90
2019-03-12T07:23:15.869Z,99.90
2019-03-12T07:25:50.914Z,99.90
2019-03-12T07:28:20.669Z,99.90
2019-03-12T07:30:50.725Z,99.90
2019-03-12T07:33:23.632Z,99.90
2019-03-12T07:36:05.586Z,99.90
2019-03-12T07:38:35.626Z,99.90
2019-03-12T07:41:28.535Z,99.90
2019-03-12T07:43:52.728Z,99.90
2019-03-12T07:46:34.799Z,99.90
2019-03-12T07:49:21.050Z,99.90
2019-03-12T07:51:56.980Z,99.90
2019-03-12T07:54:32.798Z,99.90
2019-03-12T07:57:12.070Z,99.90
2019-03-12T07:59:45.052Z,99.90
2019-03-12T08:02:33.780Z,99.90
2019-03-12T08:05:03.801Z,99.90
2019-03-12T08:07:50.158Z,99.90
2019-03-12T08:10:26.066Z,99.90
2019-03-12T08:13:08.074Z,99.90
2019-03-12T08:15:46.898Z,99.90
2019-03-12T08:18:16.934Z,99.90
2019-03-12T08:20:55.502Z,99.90
2019-03-12T08:23:40.784Z,99.90
2019-03-12T08:26:16.789Z,99.90
2019-03-12T08:28:55.511Z,99.90
2019-03-12T08:31:26.097Z,99.90
2019-03-12T08:33:58.845Z,99.90
2019-03-12T08:36:31.846Z,99.90
2019-03-12T08:39:04.576Z,99.90
2019-03-12T08:41:51.069Z,99.90
2019-03-12T08:44:21.102Z,99.90
2019-03-12T08:47:07.576Z,99.90
2019-03-12T08:49:54.263Z,99.90
2019-03-12T08:52:24.372Z,99.90
2019-03-12T08:55:06.444Z,99.90
2019-03-12T08:57:45.732Z,99.90
2019-03-12T09:00:31.930Z,99.90
2019-03-12T09:03:11.012Z,99.90
2019-03-12T09:05:56.064Z,99.90
2019-03-12T09:08:42.442Z,99.90
2019-03-12T09:11:18.517Z,99.90
2019-03-12T09:13:48.558Z,99.90
2019-03-12T09:16:18.630Z,99.90
2019-03-12T09:19:01.343Z,99.90
2019-03-12T09:21:31.478Z,99.90
2019-03-12T09:24:17.832Z,99.90
2019-03-12T09:26:47.884Z,99.90
2019-03-12T09:29:29.945Z,99.90
2019-03-12T09:32:00.050Z,99.90
2019-03-12T09:34:32.741Z,99.90
2019-03-12T09:37:03.062Z,99.90
2019-03-12T09:39:49.851Z,99.90
2019-03-12T09:42:28.697Z,99.90
2019-03-12T09:45:04.735Z,99.90
2019-03-12T09:47:43.930Z,99.60
2019-03-12T09:50:16.540Z,99.00
2019-03-12T09:52:46.573Z,99.80
2019-03-12T09:55:31.501Z,97.80
2019-03-12T09:58:01.538Z,98.40
2019-03-12T10:00:40.400Z,97.70
2019-03-12T10:03:19.152Z,96.90
2019-03-12T10:06:05.460Z,97.30
2019-03-12T10:08:41.545Z,95.90
2019-03-12T10:11:17.583Z,95.30
2019-03-12T10:13:59.641Z,94.30
2019-03-12T10:16:38.309Z,95.40
2019-03-12T10:19:14.562Z,95.40
2019-03-12T10:21:47.386Z,94.30
2019-03-12T10:24:23.389Z,94.00
2019-03-12T10:27:02.470Z,95.50
2019-03-12T10:29:35.193Z,95.90
2019-03-12T10:32:11.032Z,95.00
2019-03-12T10:34:54.864Z,94.60
2019-03-12T10:37:24.996Z,96.10
2019-03-12T10:40:09.518Z,94.20
2019-03-12T10:43:00.032Z,95.80
2019-03-12T10:45:30.157Z,96.20
2019-03-12T10:48:00.269Z,95.80
2019-03-12T10:50:29.529Z,92.80
2019-03-12T10:52:57.967Z,93.90
2019-03-12T10:55:26.345Z,91.70
2019-03-12T10:57:54.750Z,88.50
2019-03-12T11:00:23.169Z,89.80
2019-03-12T11:02:51.557Z,87.40
2019-03-12T11:05:20.196Z,90.20
2019-03-12T11:07:48.676Z,88.00
2019-03-12T11:10:18.645Z,87.20
2019-03-12T11:12:47.471Z,86.30
2019-03-12T11:15:17.592Z,90.00
2019-03-12T11:17:49.859Z,86.00
2019-03-12T11:20:26.199Z,88.80
2019-03-12T11:22:54.603Z,84.30
2019-03-12T11:25:27.704Z,82.00
2019-03-12T11:27:53.125Z,78.70
2019-03-12T11:30:21.668Z,79.70
2019-03-12T11:32:50.151Z,76.40
2019-03-12T11:35:18.624Z,83.10
2019-03-12T11:37:47.007Z,84.30
2019-03-12T11:40:21.673Z,85.30
2019-03-12T11:42:50.161Z,82.70
2019-03-12T11:45:20.463Z,77.70
2019-03-12T11:47:48.898Z,79.20
2019-03-12T11:50:21.009Z,78.10
2019-03-12T11:52:56.484Z,82.20
2019-03-12T11:55:20.290Z,82.20
2019-03-12T11:57:48.862Z,81.00
2019-03-12T12:00:24.435Z,81.20
2019-03-12T12:02:59.998Z,79.70
2019-03-12T12:05:23.329Z,81.70
2019-03-12T12:07:51.796Z,81.90
2019-03-12T12:10:20.245Z,81.30
2019-03-12T12:12:48.756Z,78.90
2019-03-12T12:15:17.222Z,78.80
2019-03-12T12:17:45.684Z,79.80
2019-03-12T12:20:28.416Z,80.80
2019-03-12T12:22:46.440Z,79.80
2019-03-12T12:25:17.626Z,81.70
2019-03-12T12:27:46.033Z,79.00
2019-03-12T12:30:20.182Z,79.70
2019-03-12T12:32:48.708Z,78.70
2019-03-12T12:35:17.196Z,79.30
2019-03-12T12:37:45.753Z,78.50
2019-03-12T12:40:20.165Z,79.20
2019-03-12T12:42:48.651Z,79.80
2019-03-12T12:45:25.901Z,78.40
2019-03-12T12:47:54.290Z,73.60
2019-03-12T12:50:22.682Z,73.20
2019-03-12T12:52:51.093Z,71.10
2019-03-12T12:55:19.490Z,68.70
2019-03-12T12:57:47.879Z,71.40
2019-03-12T13:00:19.626Z,69.20
2019-03-12T13:02:48.082Z,67.40
2019-03-12T13:05:17.573Z,72.10
2019-03-12T13:07:45.984Z,68.90
2019-03-12T13:10:28.297Z,67.20
2019-03-12T13:12:56.762Z,68.50
2019-03-12T13:15:25.289Z,68.30
2019-03-12T13:17:53.696Z,67.00
2019-03-12T13:20:22.158Z,66.50
2019-03-12T13:22:50.684Z,68.80
2019-03-12T13:25:20.796Z,70.10
2019-03-12T13:27:49.199Z,69.80
2019-03-12T13:30:21.003Z,72.00
2019-03-12T13:32:49.472Z,72.60
2019-03-12T13:35:19.390Z,71.70
2019-03-12T13:37:49.433Z,70.50
2019-03-12T13:40:21.071Z,73.50
2019-03-12T13:42:51.038Z,71.80
2019-03-12T13:45:24.782Z,70.60
2019-03-12T13:47:53.992Z,74.00
2019-03-12T13:50:22.554Z,75.20
2019-03-12T13:52:51.206Z,73.50
2019-03-12T13:55:19.766Z,74.40
2019-03-12T13:57:48.201Z,72.80
2019-03-12T14:00:25.651Z,71.90
2019-03-12T14:02:55.053Z,75.30
2019-03-12T14:05:23.535Z,72.30
2019-03-12T14:07:51.919Z,72.20
2019-03-12T14:10:23.417Z,75.30
2019-03-12T14:12:53.757Z,72.40
2019-03-12T14:15:36.029Z,72.80
2019-03-12T14:18:04.587Z,71.80
2019-03-12T14:20:43.772Z,72.00
2019-03-12T14:23:24.306Z,71.80
2019-03-12T14:25:52.792Z,73.80
2019-03-12T14:28:21.486Z,74.20
2019-03-12T14:30:49.970Z,71.60
2019-03-12T14:33:18.361Z,70.00
2019-03-12T14:35:51.898Z,72.50
2019-03-12T14:38:19.800Z,70.00
2019-03-12T14:40:49.029Z,71.70
2019-03-12T14:43:17.501Z,70.60
2019-03-12T14:45:52.166Z,71.00
2019-03-12T14:48:41.898Z,74.00
2019-03-12T14:51:19.148Z,73.40
2019-03-12T14:53:53.126Z,72.80
2019-03-12T14:56:23.824Z,69.90
2019-03-12T14:58:52.209Z,72.00
2019-03-12T15:01:21.502Z,72.00
2019-03-12T15:03:49.898Z,71.20
2019-03-12T15:06:18.516Z,73.30
2019-03-12T15:08:46.912Z,71.80
2019-03-12T15:11:16.176Z,70.60
2019-03-12T15:13:44.585Z,70.40
2019-03-12T15:16:12.958Z,71.80
2019-03-12T15:18:41.370Z,69.70
2019-03-12T15:21:09.773Z,70.30
2019-03-12T15:23:38.173Z,72.30
2019-03-12T15:26:06.569Z,70.70
2019-03-12T15:28:35.051Z,68.90
2019-03-12T15:31:03.446Z,71.10
2019-03-12T15:33:31.838Z,69.00
2019-03-12T15:36:00.248Z,69.60
2019-03-12T15:38:28.633Z,71.20
2019-03-12T15:40:57.024Z,69.40
2019-03-12T15:43:25.433Z,70.90
2019-03-12T15:45:53.834Z,71.40
2019-03-12T15:48:22.233Z,68.50
2019-03-12T15:50:50.643Z,69.50
2019-03-12T15:53:19.084Z,67.40
2019-03-12T15:55:47.488Z,67.80
2019-03-12T15:58:15.987Z,68.90
2019-03-12T16:00:45.878Z,68.20
2019-03-12T16:03:14.281Z,69.90
2019-03-12T16:05:42.674Z,68.20
2019-03-12T16:08:11.065Z,68.20
2019-03-12T16:10:39.480Z,69.40
2019-03-12T16:13:08.071Z,70.80
2019-03-12T16:15:37.834Z,71.00
2019-03-12T16:18:06.979Z,69.70
2019-03-12T16:20:35.383Z,71.00
2019-03-12T16:23:03.769Z,68.90
2019-03-12T16:25:32.172Z,68.60
2019-03-12T16:28:00.569Z,70.40
2019-03-12T16:30:29.030Z,68.60
2019-03-12T16:32:58.319Z,71.40
2019-03-12T16:35:26.731Z,68.40
2019-03-12T16:37:55.136Z,71.80
2019-03-12T16:40:23.525Z,70.10
2019-03-12T16:42:51.931Z,71.90
2019-03-12T16:45:21.855Z,69.80
2019-03-12T16:47:50.263Z,72.30
2019-03-12T16:50:19.529Z,69.50
2019-03-12T16:52:47.969Z,71.20
2019-03-12T16:55:18.496Z,71.40
2019-03-12T16:57:46.924Z,73.90
2019-03-12T17:00:22.870Z,70.20
2019-03-12T17:02:51.294Z,72.30
2019-03-12T17:05:19.680Z,70.80
2019-03-12T17:07:48.120Z,73.00
2019-03-12T17:10:19.196Z,70.70
2019-03-12T17:12:47.665Z,73.90
2019-03-12T17:15:23.812Z,72.40
2019-03-12T17:17:52.214Z,72.80
2019-03-12T17:20:21.687Z,74.50
2019-03-12T17:22:50.100Z,74.70
2019-03-12T17:25:18.498Z,75.70
2019-03-12T17:27:46.892Z,77.40
2019-03-12T17:30:21.397Z,75.70
2019-03-12T17:32:49.854Z,75.70
2019-03-12T17:35:27.349Z,75.50
2019-03-12T17:37:55.748Z,76.80
2019-03-12T17:40:24.142Z,77.00
2019-03-12T17:42:52.545Z,77.90
2019-03-12T17:45:20.997Z,76.10
2019-03-12T17:47:49.393Z,79.00
2019-03-12T17:50:17.865Z,79.60
2019-03-12T17:52:46.240Z,78.60
2019-03-12T17:55:15.512Z,79.50
2019-03-12T17:57:43.893Z,80.00
2019-03-12T18:00:15.434Z,80.30
2019-03-12T18:02:43.821Z,79.30
2019-03-12T18:05:13.651Z,79.70
2019-03-12T18:07:42.185Z,79.10
2019-03-12T18:10:15.245Z,80.00
2019-03-12T18:12:44.675Z,80.00
2019-03-12T18:15:19.067Z,81.10
2019-03-12T18:17:46.740Z,80.00
2019-03-12T18:20:19.905Z,79.90
2019-03-12T18:22:48.380Z,80.80
2019-03-12T18:25:31.873Z,80.60
2019-03-12T18:28:00.261Z,77.70
2019-03-12T18:30:28.656Z,77.60
2019-03-12T18:32:57.054Z,77.80
2019-03-12T18:35:25.458Z,76.40
2019-03-12T18:37:53.846Z,76.10
2019-03-12T18:40:27.461Z,74.60
2019-03-12T18:42:55.937Z,76.40
2019-03-12T18:45:32.602Z,80.10
2019-03-12T18:48:00.997Z,83.20
2019-03-12T18:50:29.378Z,88.20
2019-03-12T18:52:57.766Z,90.70
2019-03-12T18:55:37.718Z,91.40
2019-03-12T18:58:09.950Z,92.60
2019-03-12T19:00:41.634Z,95.20
2019-03-12T19:03:10.026Z,95.50
2019-03-12T19:05:38.427Z,97.60
2019-03-12T19:08:06.893Z,98.60
2019-03-12T19:10:35.350Z,99.90
2019-03-12T19:13:03.745Z,99.90
2019-03-12T19:15:32.229Z,99.90
2019-03-12T19:18:00.604Z,99.90
2019-03-12T19:20:28.992Z,99.90
2019-03-12T19:22:57.457Z,99.90
2019-03-12T19:25:44.103Z,99.90
2019-03-12T19:28:12.571Z,99.90
2019-03-12T19:30:41.037Z,99.90
2019-03-12T19:33:26.415Z,99.90
2019-03-12T19:35:54.991Z,99.90
2019-03-12T19:38:23.378Z,99.90
2019-03-12T19:40:57.478Z,99.90
2019-03-12T19:43:25.890Z,99.90
2019-03-12T19:45:54.337Z,99.90
2019-03-12T19:48:22.738Z,99.90
2019-03-12T19:50:51.139Z,99.90
2019-03-12T19:53:19.546Z,99.90
2019-03-12T19:55:57.012Z,99.90
2019-03-12T19:58:28.247Z,99.90
2019-03-12T20:00:56.285Z,99.90
2019-03-12T20:03:24.678Z,99.90
2019-03-12T20:05:53.083Z,99.90
2019-03-12T20:08:21.475Z,99.90
2019-03-12T20:11:05.007Z,99.90
2019-03-12T20:13:54.618Z,99.90
2019-03-12T20:16:42.800Z,99.90
2019-03-12T20:19:32.504Z,99.90
2019-03-12T20:22:29.766Z,99.90
2019-03-12T20:25:34.372Z,99.90
2019-03-12T20:28:25.518Z,99.90
2019-03-12T20:31:19.440Z,99.90
2019-03-12T20:34:24.023Z,99.90
2019-03-12T20:37:10.413Z,99.90
2019-03-12T20:39:54.313Z,99.90
2019-03-12T20:42:45.490Z,99.90
2019-03-12T20:45:37.240Z,99.90
2019-03-12T20:48:27.625Z,99.90
2019-03-12T20:51:34.163Z,99.90
2019-03-12T20:54:22.185Z,99.90
2019-03-12T20:57:10.308Z,99.90
2019-03-12T21:00:15.123Z,99.90
2019-03-12T21:03:10.173Z,99.90
2019-03-12T21:05:50.802Z,99.90
2019-03-12T21:08:47.720Z,99.90
2019-03-12T21:11:35.760Z,99.90
2019-03-12T21:14:43.487Z,99.90
2019-03-12T21:17:41.753Z,99.90
2019-03-12T21:20:35.556Z,99.90
2019-03-12T21:23:23.649Z,99.90
2019-03-12T21:26:00.940Z,99.90
2019-03-12T21:28:41.385Z,99.90
2019-03-12T21:31:09.773Z,99.90
2019-03-12T21:33:38.168Z,99.90
2019-03-12T21:36:08.421Z,99.90
2019-03-12T21:38:37.393Z,99.90
2019-03-12T21:41:05.795Z,99.90
2019-03-12T21:43:34.247Z,99.90
2019-03-12T21:46:02.625Z,99.90
2019-03-12T21:48:31.089Z,99.90
2019-03-12T21:50:59.481Z,99.90
2019-03-12T21:53:27.869Z,99.90
2019-03-12T21:55:56.425Z,99.90
2019-03-12T21:58:24.811Z,99.90
2019-03-12T22:00:53.205Z,99.90
2019-03-12T22:03:21.584Z,99.90
2019-03-12T22:05:49.980Z,99.90
2019-03-12T22:08:18.370Z,99.90
2019-03-12T22:10:46.773Z,99.90
2019-03-12T22:13:15.283Z,99.90
2019-03-12T22:15:43.678Z,99.90
2019-03-12T22:18:12.059Z,99.90
2019-03-12T22:20:40.441Z,99.90
2019-03-12T22:23:10.492Z,99.90
2019-03-12T22:25:38.873Z,99.90
2019-03-12T22:28:07.263Z,99.90
2019-03-12T22:30:35.653Z,99.90
2019-03-12T22:33:04.130Z,99.90
2019-03-12T22:35:32.510Z,99.90
2019-03-12T22:38:00.976Z,99.90
2019-03-12T22:40:29.365Z,99.90
2019-03-12T22:42:57.758Z,99.90
2019-03-12T22:45:45.494Z,99.90
2019-03-12T22:48:13.890Z,99.90
2019-03-12T22:50:42.278Z,99.90
2019-03-12T22:53:10.687Z,99.90
2019-03-12T22:55:39.074Z,99.90
2019-03-12T22:58:07.461Z,99.90
2019-03-12T23:00:39.872Z,99.90
2019-03-12T23:03:08.399Z,99.90
2019-03-12T23:05:36.853Z,99.90
2019-03-12T23:08:05.246Z,99.90
2019-03-12T23:10:33.629Z,99.90
2019-03-12T23:13:02.858Z,99.90
2019-03-12T23:15:31.244Z,99.90
2019-03-12T23:17:59.628Z,99.90
2019-03-12T23:20:28.097Z,99.90
2019-03-12T23:22:57.451Z,99.90
2019-03-12T23:25:25.836Z,99.90
2019-03-12T23:27:54.304Z,99.90
2019-03-12T23:30:24.621Z,99.90
2019-03-12T23:32:54.149Z,99.90
2019-03-12T23:35:22.546Z,99.90
2019-03-12T23:37:51.001Z,99.90
2019-03-12T23:40:19.456Z,99.90
2019-03-12T23:42:47.841Z,99.90
2019-03-12T23:45:17.269Z,99.90
2019-03-12T23:47:49.975Z,99.90
2019-03-12T23:50:19.409Z,99.90
2019-03-12T23:52:47.872Z,99.90
2019-03-12T23:55:18.969Z,99.90
2019-03-12T23:57:47.420Z,99.90
